Time;durP1;ratioP1;P1;durP2;ratioP2;P2;SDS_P1;SDS_P2;PMS_P1;PMS_P2;Temp;Humidity;BMP_temperature;BMP_pressure;BME280_temperature;BME280_humidity;BME280_pressure;Samples;Min_cycle;Max_cycle;Signal;HPM_P1;HPM_P2
2023/07/13 00:01:51;;;;;;;0.00;0.00;;;17.90;75.40;;;;;;4955449;28;20050;-77
2023/07/13 00:04:18;;;;;;;0.00;0.00;;;18.00;75.10;;;;;;4973950;28;20057;-78
2023/07/13 00:06:45;;;;;;;0.00;0.00;;;17.90;75.00;;;;;;4974163;28;20415;-78
2023/07/13 00:09:16;;;;;;;0.00;0.00;;;17.90;75.10;;;;;;4960373;28;20492;-78
2023/07/13 00:11:43;;;;;;;0.00;0.00;;;17.90;75.50;;;;;;4974908;28;20466;-77
2023/07/13 00:14:10;;;;;;;0.00;0.00;;;17.90;75.50;;;;;;4973356;28;20125;-77
2023/07/13 00:16:37;;;;;;;0.00;0.00;;;17.90;75.40;;;;;;4972787;28;20049;-78
2023/07/13 00:19:04;;;;;;;0.00;0.00;;;18.00;76.00;;;;;;4974402;28;20126;-77
2023/07/13 00:21:30;;;;;;;0.00;0.00;;;17.90;75.50;;;;;;4973385;28;20608;-78
2023/07/13 00:23:56;;;;;;;0.00;0.00;;;17.90;76.00;;;;;;4955700;28;20042;-78
2023/07/13 00:26:21;;;;;;;0.00;0.00;;;17.90;76.40;;;;;;4972742;28;20113;-77
2023/07/13 00:28:47;;;;;;;0.00;0.00;;;17.80;76.30;;;;;;4975592;28;20050;-78
2023/07/13 00:31:16;;;;;;;0.00;0.00;;;17.80;76.40;;;;;;4972888;28;20074;-78
2023/07/13 00:33:43;;;;;;;0.20;0.20;;;17.90;76.60;;;;;;4955569;28;20057;-79
2023/07/13 00:36:09;;;;;;;0.00;0.00;;;17.80;76.70;;;;;;4973096;28;20078;-78
2023/07/13 00:38:36;;;;;;;0.00;0.00;;;17.80;76.40;;;;;;4974989;28;20165;-77
2023/07/13 00:41:03;;;;;;;0.00;0.00;;;17.80;76.20;;;;;;4973167;28;20111;-79
2023/07/13 00:43:29;;;;;;;0.00;0.00;;;17.80;75.90;;;;;;4955683;28;20042;-79
2023/07/13 00:45:58;;;;;;;0.10;0.10;;;17.70;76.20;;;;;;4937703;28;20049;-79
2023/07/13 00:48:28;;;;;;;0.00;0.00;;;17.70;75.70;;;;;;4974896;28;20046;-78
2023/07/13 00:50:58;;;;;;;0.00;0.00;;;17.70;75.80;;;;;;4954941;28;20054;-79
2023/07/13 00:53:26;;;;;;;0.10;0.10;;;17.60;75.80;;;;;;4972522;28;20046;-78
2023/07/13 00:55:54;;;;;;;0.00;0.00;;;17.60;76.00;;;;;;4942253;28;20047;-79
2023/07/13 00:58:21;;;;;;;0.00;0.00;;;17.60;75.90;;;;;;4958593;28;20046;-78
2023/07/13 01:00:48;;;;;;;0.00;0.00;;;17.60;76.00;;;;;;4968980;28;20483;-78
2023/07/13 01:03:14;;;;;;;0.00;0.00;;;17.60;76.50;;;;;;4972055;28;20094;-78
2023/07/13 01:05:40;;;;;;;0.10;0.10;;;17.50;76.30;;;;;;4972148;28;20046;-79
2023/07/13 01:08:06;;;;;;;0.00;0.00;;;17.50;76.60;;;;;;4973682;28;20042;-79
2023/07/13 01:10:38;;;;;;;0.00;0.00;;;17.50;77.10;;;;;;4956416;28;20047;-78
2023/07/13 01:13:11;;;;;;;0.10;0.10;;;17.40;77.10;;;;;;4971566;28;20050;-79
2023/07/13 01:15:37;;;;;;;0.00;0.00;;;17.40;77.40;;;;;;4972457;28;20039;-78
2023/07/13 01:18:09;;;;;;;0.65;0.65;;;17.30;77.50;;;;;;4971984;28;20058;-78
2023/07/13 01:20:35;;;;;;;0.00;0.00;;;17.30;77.50;;;;;;4972150;28;20065;-77
2023/07/13 01:23:06;;;;;;;0.00;0.00;;;17.20;78.00;;;;;;4971863;28;20063;-78
2023/07/13 01:25:32;;;;;;;0.00;0.00;;;17.30;78.10;;;;;;4954396;28;20097;-77
2023/07/13 01:27:58;;;;;;;0.00;0.00;;;17.10;78.40;;;;;;4971552;28;20039;-77
2023/07/13 01:30:23;;;;;;;0.00;0.00;;;17.20;77.80;;;;;;4987678;28;20046;-78
2023/07/13 01:32:49;;;;;;;0.00;0.00;;;17.10;78.20;;;;;;4990859;28;20046;-78
2023/07/13 01:35:16;;;;;;;0.00;0.00;;;17.10;78.30;;;;;;4960081;28;20046;-78
2023/07/13 01:37:44;;;;;;;0.00;0.00;;;17.10;77.90;;;;;;4971938;28;20047;-78
2023/07/13 01:40:11;;;;;;;0.00;0.00;;;17.10;79.00;;;;;;4971287;28;20101;-78
2023/07/13 01:42:37;;;;;;;0.00;0.00;;;17.10;79.80;;;;;;4971263;28;20057;-78
2023/07/13 01:45:04;;;;;;;0.00;0.00;;;17.00;79.50;;;;;;4971701;28;20058;-78
2023/07/13 01:47:30;;;;;;;0.03;0.03;;;17.00;79.60;;;;;;4962456;28;20538;-78
2023/07/13 01:49:57;;;;;;;0.00;0.00;;;17.00;79.20;;;;;;4983035;28;20041;-78
2023/07/13 01:52:23;;;;;;;0.00;0.00;;;17.00;80.40;;;;;;4974260;28;20050;-78
2023/07/13 01:54:48;;;;;;;0.00;0.00;;;17.00;79.80;;;;;;4954354;28;20047;-78
2023/07/13 01:57:14;;;;;;;0.00;0.00;;;17.00;79.60;;;;;;4953919;28;20133;-78
2023/07/13 01:59:40;;;;;;;0.00;0.00;;;17.00;80.00;;;;;;4972952;28;20047;-78
2023/07/13 02:02:06;;;;;;;0.00;0.00;;;17.00;80.40;;;;;;4954252;28;20062;-78
2023/07/13 02:04:32;;;;;;;0.00;0.00;;;17.10;80.50;;;;;;4953952;28;20519;-78
2023/07/13 02:06:58;;;;;;;0.00;0.00;;;17.00;81.30;;;;;;4970799;28;20086;-79
2023/07/13 02:09:23;;;;;;;0.00;0.00;;;17.10;80.90;;;;;;4972191;28;20082;-78
2023/07/13 02:11:49;;;;;;;0.00;0.00;;;17.10;80.10;;;;;;4953395;28;20042;-78
2023/07/13 02:14:15;;;;;;;0.00;0.00;;;17.10;80.80;;;;;;4971089;28;20667;-78
2023/07/13 02:16:41;;;;;;;0.00;0.00;;;17.10;81.70;;;;;;4970648;28;20051;-79
2023/07/13 02:19:07;;;;;;;0.00;0.00;;;17.10;81.60;;;;;;4975913;28;20035;-78
2023/07/13 02:21:33;;;;;;;11.50;1.40;;;17.10;81.40;;;;;;4990356;28;20884;-77
2023/07/13 02:23:59;;;;;;;1.17;0.80;;;17.10;80.60;;;;;;4972670;28;20062;-79
2023/07/13 02:26:26;;;;;;;0.00;0.00;;;17.10;82.00;;;;;;4970772;28;20122;-77
2023/07/13 02:28:51;;;;;;;0.00;0.00;;;17.10;82.50;;;;;;4971117;28;20141;-78
2023/07/13 02:31:18;;;;;;;0.00;0.00;;;17.10;81.90;;;;;;4969366;28;20051;-78
2023/07/13 02:33:43;;;;;;;0.00;0.00;;;17.10;82.70;;;;;;4969558;28;20531;-78
2023/07/13 02:36:10;;;;;;;0.00;0.00;;;17.10;82.20;;;;;;4969335;28;20133;-78
2023/07/13 02:38:36;;;;;;;0.00;0.00;;;17.10;82.90;;;;;;4969489;28;20458;-77
2023/07/13 02:41:08;;;;;;;0.00;0.00;;;17.00;82.70;;;;;;4969397;28;20057;-77
2023/07/13 02:43:33;;;;;;;0.00;0.00;;;17.00;82.50;;;;;;4969272;28;20050;-77
2023/07/13 02:46:06;;;;;;;0.00;0.00;;;17.10;83.70;;;;;;4969584;28;20400;-76
2023/07/13 02:48:35;;;;;;;0.00;0.00;;;17.00;83.90;;;;;;4973002;28;20129;-77
2023/07/13 02:51:01;;;;;;;0.00;0.00;;;17.00;84.10;;;;;;4972048;28;20050;-77
2023/07/13 02:53:27;;;;;;;0.00;0.00;;;17.00;83.50;;;;;;4968713;28;20545;-77
2023/07/13 02:55:52;;;;;;;0.00;0.00;;;17.00;84.20;;;;;;4968010;28;20035;-78
2023/07/13 02:58:18;;;;;;;0.00;0.00;;;17.00;84.00;;;;;;4969221;28;20038;-77
2023/07/13 03:00:46;;;;;;;1.25;0.90;;;17.00;84.30;;;;;;4970570;28;20039;-78
2023/07/13 03:03:13;;;;;;;0.00;0.00;;;16.90;84.10;;;;;;4970310;28;20042;-77
2023/07/13 03:05:44;;;;;;;0.00;0.00;;;17.00;83.80;;;;;;4969647;28;20182;-77
2023/07/13 03:08:11;;;;;;;0.20;0.20;;;16.90;83.90;;;;;;4969028;28;20051;-77
2023/07/13 03:10:38;;;;;;;4.55;1.95;;;16.90;84.00;;;;;;4969631;28;20057;-77
2023/07/13 03:13:03;;;;;;;0.00;0.00;;;16.90;84.60;;;;;;4969350;28;20049;-77
2023/07/13 03:15:29;;;;;;;0.00;0.00;;;16.90;84.60;;;;;;4969161;28;20579;-77
2023/07/13 03:17:55;;;;;;;0.20;0.20;;;16.80;85.00;;;;;;4973128;28;20035;-77
2023/07/13 03:20:21;;;;;;;0.10;0.10;;;16.90;84.70;;;;;;4970060;28;20047;-78
2023/07/13 03:22:47;;;;;;;0.00;0.00;;;16.80;84.60;;;;;;4970119;28;20051;-77
2023/07/13 03:25:12;;;;;;;0.10;0.10;;;16.80;84.40;;;;;;4970108;28;20039;-77
2023/07/13 03:27:38;;;;;;;0.00;0.00;;;16.80;84.80;;;;;;4973658;28;20046;-78
2023/07/13 03:30:05;;;;;;;0.00;0.00;;;16.80;85.00;;;;;;4976282;28;20054;-77
2023/07/13 03:32:31;;;;;;;0.00;0.00;;;16.80;84.60;;;;;;4969865;28;20105;-78
2023/07/13 03:34:57;;;;;;;0.00;0.00;;;16.80;84.30;;;;;;4970555;28;20042;-78
2023/07/13 03:37:23;;;;;;;0.00;0.00;;;16.80;84.10;;;;;;4975279;28;20130;-78
2023/07/13 03:39:49;;;;;;;0.00;0.00;;;16.80;84.40;;;;;;4989383;28;20043;-77
2023/07/13 03:42:15;;;;;;;0.00;0.00;;;16.80;84.40;;;;;;4973743;28;20109;-77
2023/07/13 03:44:42;;;;;;;0.00;0.00;;;16.80;84.30;;;;;;4956593;28;20049;-77
2023/07/13 03:47:08;;;;;;;0.00;0.00;;;16.80;84.10;;;;;;4973343;28;20042;-77
2023/07/13 03:49:34;;;;;;;0.00;0.00;;;16.70;84.10;;;;;;4975201;28;20411;-76
2023/07/13 03:52:00;;;;;;;0.00;0.00;;;16.70;84.20;;;;;;4982760;28;20057;-77
2023/07/13 03:54:26;;;;;;;0.10;0.10;;;16.70;84.80;;;;;;4979997;28;20054;-76
2023/07/13 03:56:52;;;;;;;0.00;0.00;;;16.70;84.60;;;;;;4971579;28;20134;-76
2023/07/13 03:59:18;;;;;;;0.00;0.00;;;16.70;84.40;;;;;;4956141;28;20431;-76
2023/07/13 04:01:44;;;;;;;0.03;0.03;;;16.80;84.70;;;;;;4976569;28;20512;-76
2023/07/13 04:04:09;;;;;;;0.00;0.00;;;16.70;84.50;;;;;;4970207;28;20111;-76
2023/07/13 04:06:35;;;;;;;0.00;0.00;;;16.80;84.10;;;;;;4963778;28;20093;-78
2023/07/13 04:09:05;;;;;;;0.00;0.00;;;16.70;84.60;;;;;;4973790;28;20038;-77
2023/07/13 04:11:31;;;;;;;0.30;0.30;;;16.60;84.60;;;;;;4972584;28;20073;-78
2023/07/13 04:13:57;;;;;;;0.00;0.00;;;16.70;84.80;;;;;;4972197;28;20042;-77
2023/07/13 04:16:24;;;;;;;0.10;0.10;;;16.70;84.80;;;;;;4971474;28;20072;-77
2023/07/13 04:18:50;;;;;;;0.00;0.00;;;16.70;84.70;;;;;;4969049;28;20083;-77
2023/07/13 04:21:16;;;;;;;0.20;0.20;;;16.70;84.30;;;;;;4989290;28;20094;-77
2023/07/13 04:23:42;;;;;;;0.00;0.00;;;16.80;85.20;;;;;;4972372;28;20069;-77
2023/07/13 04:26:08;;;;;;;0.00;0.00;;;16.80;85.20;;;;;;4971590;28;20774;-77
2023/07/13 04:28:34;;;;;;;0.00;0.00;;;16.70;85.20;;;;;;4954896;28;20043;-77
2023/07/13 04:31:00;;;;;;;0.00;0.00;;;16.80;84.90;;;;;;4975680;28;20105;-77
2023/07/13 04:33:27;;;;;;;0.00;0.00;;;16.80;85.00;;;;;;4971734;28;20616;-77
2023/07/13 04:35:57;;;;;;;0.00;0.00;;;16.80;85.20;;;;;;4971841;28;20046;-77
2023/07/13 04:38:31;;;;;;;0.00;0.00;;;16.80;84.80;;;;;;4971116;28;20039;-77
2023/07/13 04:40:59;;;;;;;0.00;0.00;;;16.80;84.60;;;;;;4975544;28;20038;-77
2023/07/13 04:43:25;;;;;;;0.00;0.00;;;16.80;84.70;;;;;;4972226;28;20066;-77
2023/07/13 04:45:52;;;;;;;0.00;0.00;;;16.90;84.50;;;;;;4954226;28;20396;-77
2023/07/13 04:48:18;;;;;;;0.00;0.00;;;16.90;84.40;;;;;;4970956;28;20035;-77
2023/07/13 04:50:44;;;;;;;0.15;0.15;;;16.90;84.60;;;;;;4955405;28;20078;-77
2023/07/13 04:53:11;;;;;;;0.00;0.00;;;17.00;84.60;;;;;;4954883;28;20194;-80
2023/07/13 04:55:37;;;;;;;0.00;0.00;;;17.10;84.20;;;;;;4972249;28;20049;-77
2023/07/13 04:58:04;;;;;;;0.00;0.00;;;17.10;84.10;;;;;;4972730;28;20046;-77
2023/07/13 05:00:30;;;;;;;0.00;0.00;;;17.10;84.10;;;;;;4972720;28;20050;-78
2023/07/13 05:02:57;;;;;;;0.00;0.00;;;17.10;84.30;;;;;;4972342;28;20117;-77
2023/07/13 05:05:24;;;;;;;0.00;0.00;;;17.10;84.00;;;;;;4971827;28;20117;-77
2023/07/13 05:07:51;;;;;;;4.00;1.55;;;17.20;83.90;;;;;;4971779;28;20467;-78
2023/07/13 05:10:17;;;;;;;0.00;0.00;;;17.30;83.80;;;;;;4972174;28;20396;-77
2023/07/13 05:12:42;;;;;;;0.00;0.00;;;17.30;83.90;;;;;;4953865;28;20039;-77
2023/07/13 05:15:09;;;;;;;0.00;0.00;;;17.30;84.50;;;;;;4954441;28;20050;-77
2023/07/13 05:17:35;;;;;;;0.00;0.00;;;17.30;84.60;;;;;;4973217;28;20050;-76
2023/07/13 05:20:00;;;;;;;0.00;0.00;;;17.30;84.40;;;;;;4972948;28;20046;-76
2023/07/13 05:22:26;;;;;;;0.00;0.00;;;17.40;84.80;;;;;;4970012;28;20109;-75
2023/07/13 05:24:52;;;;;;;0.00;0.00;;;17.40;84.60;;;;;;4972006;28;20051;-76
2023/07/13 05:27:18;;;;;;;0.00;0.00;;;17.50;84.60;;;;;;4970686;28;20522;-74
2023/07/13 05:29:44;;;;;;;0.10;0.10;;;17.60;84.90;;;;;;4951919;28;20050;-70
2023/07/13 05:32:10;;;;;;;0.13;0.13;;;17.60;84.40;;;;;;4969985;28;20053;-70
2023/07/13 05:34:38;;;;;;;0.00;0.00;;;17.60;84.60;;;;;;4967322;28;20055;-69
2023/07/13 05:37:04;;;;;;;0.00;0.00;;;17.70;84.80;;;;;;4965658;28;20086;-69
2023/07/13 05:39:30;;;;;;;0.00;0.00;;;17.80;84.50;;;;;;4953299;28;20502;-72
2023/07/13 05:41:56;;;;;;;0.00;0.00;;;17.90;84.50;;;;;;4968283;28;20043;-73
2023/07/13 05:44:21;;;;;;;0.00;0.00;;;17.90;84.20;;;;;;4959988;28;20047;-72
2023/07/13 05:46:47;;;;;;;0.00;0.00;;;17.90;84.40;;;;;;4958568;28;20071;-72
2023/07/13 05:49:13;;;;;;;0.45;0.43;;;18.00;84.40;;;;;;4953329;28;20043;-73
2023/07/13 05:51:38;;;;;;;0.00;0.00;;;18.10;84.30;;;;;;4971404;28;20062;-72
2023/07/13 05:54:04;;;;;;;0.00;0.00;;;18.10;84.10;;;;;;4968389;28;20131;-72
2023/07/13 05:56:30;;;;;;;0.10;0.10;;;18.10;83.30;;;;;;4970390;28;20046;-72
2023/07/13 05:58:56;;;;;;;0.00;0.00;;;18.20;83.50;;;;;;4970488;28;20047;-71
2023/07/13 06:01:23;;;;;;;0.00;0.00;;;18.20;83.10;;;;;;4970895;28;20047;-71
2023/07/13 06:03:49;;;;;;;0.00;0.00;;;18.30;82.90;;;;;;4970360;28;20070;-78
2023/07/13 06:06:15;;;;;;;0.00;0.00;;;18.40;82.60;;;;;;4970726;28;20051;-74
2023/07/13 06:08:41;;;;;;;0.00;0.00;;;18.40;83.30;;;;;;4984746;28;20058;-74
2023/07/13 06:11:13;;;;;;;0.00;0.00;;;18.30;83.30;;;;;;4972238;28;20054;-74
2023/07/13 06:13:39;;;;;;;0.00;0.00;;;18.20;82.90;;;;;;4969688;28;20508;-73
2023/07/13 06:16:05;;;;;;;0.00;0.00;;;18.20;83.00;;;;;;4970007;28;20042;-72
2023/07/13 06:18:32;;;;;;;0.00;0.00;;;18.10;83.70;;;;;;4969742;28;20066;-73
2023/07/13 06:20:58;;;;;;;0.00;0.00;;;18.00;83.70;;;;;;4967567;28;20575;-78
2023/07/13 06:23:25;;;;;;;0.00;0.00;;;18.00;83.60;;;;;;4969755;28;20086;-77
2023/07/13 06:25:50;;;;;;;0.00;0.00;;;17.90;83.70;;;;;;4953511;28;20498;-76
2023/07/13 06:28:16;;;;;;;0.05;0.05;;;17.90;83.60;;;;;;4953924;28;20045;-76
2023/07/13 06:30:42;;;;;;;0.00;0.00;;;17.80;83.80;;;;;;4953266;28;20553;-77
2023/07/13 06:33:07;;;;;;;0.00;0.00;;;17.80;84.10;;;;;;4953430;28;20155;-77
2023/07/13 06:35:33;;;;;;;0.00;0.00;;;17.80;84.10;;;;;;4954988;28;20046;-76
2023/07/13 06:37:59;;;;;;;0.00;0.00;;;17.80;84.30;;;;;;4953470;28;20050;-76
2023/07/13 06:40:25;;;;;;;0.00;0.00;;;18.00;84.60;;;;;;4968944;28;20563;-74
2023/07/13 06:42:51;;;;;;;0.00;0.00;;;18.00;84.70;;;;;;4972505;28;20126;-73
2023/07/13 06:45:17;;;;;;;0.55;0.55;;;18.10;83.90;;;;;;4964389;28;20113;-73
2023/07/13 06:47:42;;;;;;;0.00;0.00;;;18.20;82.70;;;;;;4957011;28;20684;-73
2023/07/13 06:50:09;;;;;;;0.65;0.65;;;18.30;82.80;;;;;;4963356;28;20038;-73
2023/07/13 06:52:34;;;;;;;0.00;0.00;;;18.30;82.10;;;;;;4964621;28;20483;-73
2023/07/13 06:55:00;;;;;;;0.00;0.00;;;18.30;82.00;;;;;;4965225;28;20035;-73
2023/07/13 06:57:27;;;;;;;0.00;0.00;;;18.30;82.00;;;;;;4964065;28;20066;-73
2023/07/13 06:59:53;;;;;;;0.00;0.00;;;18.30;82.10;;;;;;4965510;28;20419;-73
2023/07/13 07:02:19;;;;;;;0.00;0.00;;;18.20;82.50;;;;;;4967173;28;20066;-73
2023/07/13 07:04:44;;;;;;;0.00;0.00;;;18.30;82.50;;;;;;4964682;28;20565;-72
2023/07/13 07:07:10;;;;;;;0.75;0.63;;;18.30;82.80;;;;;;4965238;28;20074;-72
2023/07/13 07:09:36;;;;;;;0.00;0.00;;;18.30;82.50;;;;;;4963770;28;20031;-72
2023/07/13 07:12:03;;;;;;;0.00;0.00;;;18.40;81.70;;;;;;4964745;28;20093;-71
2023/07/13 07:14:29;;;;;;;0.00;0.00;;;18.40;80.30;;;;;;4965853;28;20042;-71
2023/07/13 07:16:55;;;;;;;0.10;0.10;;;18.50;80.30;;;;;;4965059;28;20086;-71
2023/07/13 07:19:20;;;;;;;0.00;0.00;;;18.50;79.30;;;;;;4963905;28;20492;-71
2023/07/13 07:21:46;;;;;;;0.00;0.00;;;18.50;79.00;;;;;;4953580;28;20074;-71
2023/07/13 07:24:12;;;;;;;0.00;0.00;;;18.60;78.80;;;;;;4963135;28;20142;-71
2023/07/13 07:26:38;;;;;;;0.00;0.00;;;18.60;78.50;;;;;;4964132;28;20134;-71
2023/07/13 07:29:03;;;;;;;0.00;0.00;;;18.60;78.30;;;;;;4964961;28;20082;-71
2023/07/13 07:31:29;;;;;;;0.00;0.00;;;18.70;78.60;;;;;;4964634;28;20057;-67
2023/07/13 07:33:55;;;;;;;0.30;0.30;;;18.70;77.80;;;;;;4963871;28;20035;-71
2023/07/13 07:36:20;;;;;;;0.10;0.10;;;18.70;78.20;;;;;;4961378;28;20059;-71
2023/07/13 07:38:48;;;;;;;0.00;0.00;;;18.80;77.90;;;;;;4960155;28;20042;-72
2023/07/13 07:41:13;;;;;;;0.10;0.10;;;18.80;78.10;;;;;;4959972;28;20054;-71
2023/07/13 07:43:39;;;;;;;0.00;0.00;;;18.80;77.80;;;;;;4966389;28;20046;-72
2023/07/13 07:46:06;;;;;;;0.35;0.35;;;18.80;76.10;;;;;;4965008;28;20723;-72
2023/07/13 07:48:32;;;;;;;0.00;0.00;;;18.90;75.90;;;;;;4964672;28;20062;-71
2023/07/13 07:50:58;;;;;;;0.10;0.10;;;19.00;76.40;;;;;;4967241;28;20102;-71
2023/07/13 07:53:23;;;;;;;0.00;0.00;;;19.10;76.30;;;;;;4965172;28;20047;-71
2023/07/13 07:55:49;;;;;;;0.00;0.00;;;19.30;76.10;;;;;;4965279;28;20078;-71
2023/07/13 07:58:15;;;;;;;0.00;0.00;;;19.30;75.00;;;;;;4968262;28;20038;-72
2023/07/13 08:00:41;;;;;;;0.00;0.00;;;19.50;74.60;;;;;;4968268;28;20059;-71
2023/07/13 08:03:06;;;;;;;0.00;0.00;;;19.60;74.80;;;;;;4969083;28;20043;-72
2023/07/13 08:05:35;;;;;;;0.00;0.00;;;19.60;73.60;;;;;;4969354;28;20056;-71
2023/07/13 08:08:01;;;;;;;0.00;0.00;;;19.50;72.80;;;;;;4967389;28;20086;-70
2023/07/13 08:10:27;;;;;;;0.00;0.00;;;19.30;72.40;;;;;;4935657;28;20460;-70
2023/07/13 08:12:53;;;;;;;0.00;0.00;;;19.10;72.90;;;;;;4966585;28;20043;-70
2023/07/13 08:15:20;;;;;;;0.00;0.00;;;19.10;73.40;;;;;;4967326;28;20042;-71
2023/07/13 08:17:47;;;;;;;0.00;0.00;;;19.10;74.50;;;;;;4950664;28;20118;-70
2023/07/13 08:20:14;;;;;;;0.00;0.00;;;19.20;74.60;;;;;;4963632;28;20044;-70
2023/07/13 08:22:39;;;;;;;0.00;0.00;;;19.20;73.80;;;;;;4966746;28;20074;-70
2023/07/13 08:25:05;;;;;;;0.00;0.00;;;19.20;74.00;;;;;;4979726;28;20055;-68
2023/07/13 08:27:32;;;;;;;0.00;0.00;;;19.10;74.60;;;;;;4971019;28;20479;-70
2023/07/13 08:29:58;;;;;;;0.00;0.00;;;19.10;74.10;;;;;;4969305;28;20049;-70
2023/07/13 08:32:24;;;;;;;0.00;0.00;;;19.20;74.00;;;;;;4971991;28;20398;-70
2023/07/13 08:34:51;;;;;;;0.00;0.00;;;19.20;72.90;;;;;;4969826;28;20051;-69
2023/07/13 08:37:18;;;;;;;0.00;0.00;;;19.30;72.10;;;;;;4972558;28;20163;-70
2023/07/13 08:39:43;;;;;;;0.40;0.40;;;19.40;71.70;;;;;;4971301;28;20101;-70
2023/07/13 08:42:32;;;;;;;0.00;0.00;;;19.60;71.20;;;;;;4977550;28;20047;-70
2023/07/13 08:45:25;;;;;;;0.00;0.00;;;19.60;69.40;;;;;;4972123;28;20088;-70
2023/07/13 08:48:02;;;;;;;0.00;0.00;;;19.70;67.90;;;;;;4972636;28;20046;-70
2023/07/13 08:50:34;;;;;;;0.00;0.00;;;19.80;68.20;;;;;;4971883;28;20047;-69
2023/07/13 08:53:02;;;;;;;0.00;0.00;;;19.70;63.00;;;;;;4967192;28;20047;-70
2023/07/13 08:55:33;;;;;;;0.00;0.00;;;19.80;66.30;;;;;;4972226;28;20043;-70
2023/07/13 08:58:13;;;;;;;0.10;0.10;;;19.80;66.70;;;;;;4977038;28;20054;-70
2023/07/13 09:00:46;;;;;;;0.00;0.00;;;19.70;67.30;;;;;;4968690;28;20070;-70
2023/07/13 09:03:36;;;;;;;0.00;0.00;;;19.70;68.70;;;;;;4967371;28;20047;-70
2023/07/13 09:06:03;;;;;;;0.00;0.00;;;19.80;65.80;;;;;;4971047;28;20078;-69
2023/07/13 09:09:02;;;;;;;0.00;0.00;;;19.80;65.30;;;;;;4972181;28;20050;-69
2023/07/13 09:12:14;;;;;;;0.00;0.00;;;19.90;63.90;;;;;;4971410;28;20078;-72
2023/07/13 09:14:53;;;;;;;0.00;0.00;;;20.00;64.70;;;;;;4900956;29;20049;-76
2023/07/13 09:17:26;;;;;;;0.00;0.00;;;20.10;64.60;;;;;;4954072;28;20050;-76
2023/07/13 09:20:03;;;;;;;0.00;0.00;;;20.30;64.80;;;;;;4954715;28;20530;-75
2023/07/13 09:22:34;;;;;;;0.00;0.00;;;20.30;65.50;;;;;;4961567;28;20059;-76
2023/07/13 09:25:18;;;;;;;0.00;0.00;;;20.30;64.10;;;;;;4955226;28;20042;-76
2023/07/13 09:27:47;;;;;;;0.00;0.00;;;20.30;64.00;;;;;;4947483;28;20435;-77
2023/07/13 09:30:16;;;;;;;0.00;0.00;;;20.30;64.70;;;;;;4946958;28;20121;-76
2023/07/13 09:32:47;;;;;;;0.00;0.00;;;20.20;63.90;;;;;;4963596;28;20070;-76
2023/07/13 09:35:18;;;;;;;;;;;20.00;64.60;;;;;;4947991;28;20046;-76
2023/07/13 09:37:46;;;;;;;0.00;0.00;;;20.00;65.60;;;;;;4969428;28;19930;-77
2023/07/13 09:40:25;;;;;;;3.42;1.45;;;20.00;64.40;;;;;;4946496;28;20043;-75
2023/07/13 09:42:54;;;;;;;0.10;0.10;;;20.00;64.60;;;;;;4966582;28;20047;-75
2023/07/13 09:45:32;;;;;;;0.28;0.28;;;20.00;63.80;;;;;;4968258;28;20078;-75
2023/07/13 09:48:10;;;;;;;0.00;0.00;;;20.10;62.90;;;;;;4950972;28;20137;-73
2023/07/13 09:50:36;;;;;;;0.00;0.00;;;20.10;63.10;;;;;;4966656;28;20055;-73
2023/07/13 09:53:03;;;;;;;0.00;0.00;;;20.20;63.50;;;;;;4966234;28;20042;-67
2023/07/13 09:55:37;;;;;;;0.00;0.00;;;20.20;63.30;;;;;;4966188;28;20042;-70
2023/07/13 09:58:09;;;;;;;0.00;0.00;;;20.40;63.20;;;;;;4961882;28;20038;-71
2023/07/13 10:00:35;;;;;;;0.00;0.00;;;20.50;63.60;;;;;;4971113;28;20051;-71
2023/07/13 10:03:04;;;;;;;0.00;0.00;;;20.50;64.60;;;;;;4966524;28;20768;-71
2023/07/13 10:05:41;;;;;;;0.00;0.00;;;20.60;63.20;;;;;;4967206;28;20404;-71
2023/07/13 10:08:21;;;;;;;2.75;0.90;;;20.60;63.00;;;;;;4967414;28;20125;-72
2023/07/13 10:10:55;;;;;;;0.00;0.00;;;20.50;62.50;;;;;;4968142;28;20574;-71
2023/07/13 10:13:29;;;;;;;0.00;0.00;;;20.40;61.80;;;;;;4969539;28;20054;-71
2023/07/13 10:15:57;;;;;;;0.00;0.00;;;20.50;62.70;;;;;;4949861;28;20046;-70
2023/07/13 10:18:25;;;;;;;0.00;0.00;;;20.60;63.40;;;;;;4967845;28;20046;-71
2023/07/13 10:21:00;;;;;;;0.00;0.00;;;20.70;64.50;;;;;;4951466;28;20696;-71
2023/07/13 10:23:34;;;;;;;0.10;0.10;;;20.90;63.60;;;;;;4968422;28;20117;-71
2023/07/13 10:26:01;;;;;;;0.00;0.00;;;21.00;64.40;;;;;;4968385;28;20050;-71
2023/07/13 10:28:32;;;;;;;0.00;0.00;;;21.00;63.10;;;;;;4964552;28;20569;-71
2023/07/13 10:31:01;;;;;;;0.10;0.10;;;21.00;62.70;;;;;;4968817;28;20074;-71
2023/07/13 10:33:27;;;;;;;0.65;0.65;;;20.90;62.40;;;;;;4968405;28;20085;-71
2023/07/13 10:36:02;;;;;;;0.00;0.00;;;21.10;63.20;;;;;;4969076;28;20442;-72
2023/07/13 10:38:29;;;;;;;0.00;0.00;;;21.10;60.10;;;;;;4968927;28;20804;-70
2023/07/13 10:41:03;;;;;;;0.00;0.00;;;21.00;58.00;;;;;;4967990;28;20042;-71
2023/07/13 10:43:37;;;;;;;0.00;0.00;;;21.00;60.50;;;;;;4965791;28;20077;-72
2023/07/13 10:46:07;;;;;;;0.00;0.00;;;21.10;60.90;;;;;;4967233;28;20051;-72
2023/07/13 10:48:36;;;;;;;0.00;0.00;;;21.30;61.30;;;;;;4967015;28;20090;-72
2023/07/13 10:51:05;;;;;;;0.00;0.00;;;21.30;58.70;;;;;;4969067;28;20047;-71
2023/07/13 10:53:34;;;;;;;0.00;0.00;;;21.30;58.10;;;;;;4968288;28;20054;-71
2023/07/13 10:56:19;;;;;;;0.03;0.03;;;21.20;58.10;;;;;;4968900;28;20042;-72
2023/07/13 10:58:46;;;;;;;0.10;0.10;;;21.40;59.30;;;;;;4968595;28;20132;-72
2023/07/13 11:01:17;;;;;;;0.03;0.03;;;21.40;59.40;;;;;;4964284;28;20581;-72
2023/07/13 11:04:02;;;;;;;0.80;0.80;;;21.50;60.40;;;;;;4967492;28;20492;-71
2023/07/13 11:06:29;;;;;;;0.00;0.00;;;21.50;59.60;;;;;;4968190;28;20129;-71
2023/07/13 11:08:57;;;;;;;0.00;0.00;;;21.40;59.80;;;;;;4968832;28;20054;-71
2023/07/13 11:11:29;;;;;;;0.10;0.10;;;21.30;58.80;;;;;;4967844;28;20508;-71
2023/07/13 11:13:57;;;;;;;0.20;0.20;;;21.30;61.00;;;;;;4964102;28;20039;-71
2023/07/13 11:16:23;;;;;;;0.00;0.00;;;21.40;60.70;;;;;;4967303;28;20043;-72
2023/07/13 11:18:51;;;;;;;0.00;0.00;;;21.50;61.40;;;;;;4965355;28;20708;-72
2023/07/13 11:21:21;;;;;;;0.00;0.00;;;21.50;58.70;;;;;;4963326;28;20071;-72
2023/07/13 11:24:02;;;;;;;0.00;0.00;;;21.40;58.50;;;;;;4966877;28;20589;-72
2023/07/13 11:26:50;;;;;;;0.00;0.00;;;21.00;58.30;;;;;;4963875;28;20078;-72
2023/07/13 11:29:31;;;;;;;0.05;0.05;;;21.00;59.10;;;;;;4962445;28;20491;-72
2023/07/13 11:31:59;;;;;;;0.00;0.00;;;21.10;59.00;;;;;;4968532;28;20054;-71
2023/07/13 11:34:33;;;;;;;1.17;0.13;;;21.30;58.50;;;;;;4968104;28;20508;-72
2023/07/13 11:37:00;;;;;;;0.00;0.00;;;21.20;56.50;;;;;;4964569;28;20053;-72
2023/07/13 11:39:36;;;;;;;0.00;0.00;;;21.30;58.00;;;;;;4968243;28;20198;-72
2023/07/13 11:42:05;;;;;;;0.10;0.10;;;21.40;58.30;;;;;;4962340;28;20031;-72
2023/07/13 11:44:33;;;;;;;0.00;0.00;;;21.50;56.40;;;;;;4964906;28;20057;-72
2023/07/13 11:47:08;;;;;;;0.00;0.00;;;21.40;57.20;;;;;;4970531;28;20055;-73
2023/07/13 11:49:47;;;;;;;0.10;0.10;;;21.40;58.00;;;;;;4964295;28;20039;-72
2023/07/13 11:52:17;;;;;;;0.00;0.00;;;21.40;57.80;;;;;;4964927;28;20051;-72
2023/07/13 11:54:55;;;;;;;0.10;0.10;;;21.50;56.80;;;;;;4954133;28;20051;-73
2023/07/13 11:57:37;;;;;;;0.00;0.00;;;21.40;58.00;;;;;;4956275;28;20043;-72
2023/07/13 12:00:16;;;;;;;0.00;0.00;;;21.30;57.20;;;;;;4961628;28;20055;-72
2023/07/13 12:02:49;;;;;;;0.00;0.00;;;21.20;57.40;;;;;;4969485;28;20059;-72
2023/07/13 12:05:20;;;;;;;0.00;0.00;;;21.20;58.00;;;;;;4973568;28;20046;-72
2023/07/13 12:07:46;;;;;;;;;;;21.30;56.00;;;;;;4973450;28;20050;-71
2023/07/13 12:10:25;;;;;;;4.68;0.45;;;21.40;56.20;;;;;;4970012;28;19953;-73
2023/07/13 12:13:02;;;;;;;0.00;0.00;;;21.50;58.00;;;;;;4965781;28;20101;-73
2023/07/13 12:15:38;;;;;;;0.45;0.45;;;21.50;56.30;;;;;;4973429;28;20051;-73
2023/07/13 12:18:18;;;;;;;0.00;0.00;;;21.50;58.50;;;;;;4972967;28;20155;-72
2023/07/13 12:20:46;;;;;;;0.00;0.00;;;21.50;57.40;;;;;;4965557;28;20046;-73
2023/07/13 12:23:24;;;;;;;0.00;0.00;;;21.40;57.70;;;;;;4973128;28;20499;-73
2023/07/13 12:25:51;;;;;;;0.05;0.05;;;21.40;58.20;;;;;;4953769;28;20083;-73
2023/07/13 12:28:34;;;;;;;0.00;0.00;;;21.30;59.50;;;;;;4948286;28;20045;-73
2023/07/13 12:31:03;;;;;;;0.00;0.00;;;21.30;59.70;;;;;;4953815;28;20043;-74
2023/07/13 12:33:32;;;;;;;0.00;0.00;;;21.50;59.90;;;;;;4946907;28;20415;-72
2023/07/13 12:36:02;;;;;;;0.00;0.00;;;21.50;59.30;;;;;;4967898;28;20566;-71
2023/07/13 12:38:29;;;;;;;8.02;1.92;;;21.50;59.60;;;;;;4952857;29;20039;-71
2023/07/13 12:40:55;;;;;;;0.00;0.00;;;21.50;59.90;;;;;;4952922;29;20074;-70
2023/07/13 12:43:23;;;;;;;0.00;0.00;;;21.60;60.90;;;;;;4953800;29;20102;-71
2023/07/13 12:46:18;;;;;;;0.00;0.00;;;21.60;59.40;;;;;;4953642;29;20098;-71
2023/07/13 12:48:45;;;;;;;0.10;0.10;;;21.50;60.40;;;;;;4948375;28;20542;-70
2023/07/13 12:51:14;;;;;;;0.00;0.00;;;21.30;60.10;;;;;;4972541;28;20097;-71
2023/07/13 12:53:49;;;;;;;0.10;0.10;;;21.50;60.00;;;;;;4970274;28;20440;-71
2023/07/13 12:56:26;;;;;;;0.00;0.00;;;21.30;61.70;;;;;;4963155;28;20070;-71